sensor_id;sensor_type;location;lat;lon;timestamp;temperature;humidity
51841;DHT22;37888;53.246;6.658;2023-06-04T00:01:40;10.50;99.90
51841;DHT22;37888;53.246;6.658;2023-06-04T00:04:16;10.40;99.90
51841;DHT22;37888;53.246;6.658;2023-06-04T00:06:49;10.30;99.90
51841;DHT22;37888;53.246;6.658;2023-06-04T00:09:18;10.30;99.90
51841;DHT22;37888;53.246;6.658;2023-06-04T00:11:46;10.20;99.90
51841;DHT22;37888;53.246;6.658;2023-06-04T00:14:18;10.00;99.90
51841;DHT22;37888;53.246;6.658;2023-06-04T00:16:44;9.90;99.90
51841;DHT22;37888;53.246;6.658;2023-06-04T00:19:10;10.10;99.90
51841;DHT22;37888;53.246;6.658;2023-06-04T00:24:08;10.10;99.90
51841;DHT22;37888;53.246;6.658;2023-06-04T00:26:36;10.00;99.90
51841;DHT22;37888;53.246;6.658;2023-06-04T00:29:35;10.00;99.90
51841;DHT22;37888;53.246;6.658;2023-06-04T00:32:19;9.60;99.90
51841;DHT22;37888;53.246;6.658;2023-06-04T00:34:59;9.90;99.90
51841;DHT22;37888;53.246;6.658;2023-06-04T00:37:49;9.80;99.90
51841;DHT22;37888;53.246;6.658;2023-06-04T00:40:21;9.80;99.90
51841;DHT22;37888;53.246;6.658;2023-06-04T00:46:13;9.90;99.90
51841;DHT22;37888;53.246;6.658;2023-06-04T00:49:10;9.90;99.90
51841;DHT22;37888;53.246;6.658;2023-06-04T00:51:59;9.90;99.90
51841;DHT22;37888;53.246;6.658;2023-06-04T00:54:31;9.80;99.90
51841;DHT22;37888;53.246;6.658;2023-06-04T00:57:05;9.80;99.90
51841;DHT22;37888;53.246;6.658;2023-06-04T00:59:33;10.00;99.90
51841;DHT22;37888;53.246;6.658;2023-06-04T01:02:24;9.70;99.90
51841;DHT22;37888;53.246;6.658;2023-06-04T01:05:26;9.70;99.90
51841;DHT22;37888;53.246;6.658;2023-06-04T01:07:59;9.70;99.90
51841;DHT22;37888;53.246;6.658;2023-06-04T01:10:30;9.70;99.90
51841;DHT22;37888;53.246;6.658;2023-06-04T01:13:05;9.70;99.90
51841;DHT22;37888;53.246;6.658;2023-06-04T01:15:33;9.70;99.90
51841;DHT22;37888;53.246;6.658;2023-06-04T01:18:44;9.70;99.90
51841;DHT22;37888;53.246;6.658;2023-06-04T01:21:21;9.80;99.90
51841;DHT22;37888;53.246;6.658;2023-06-04T01:24:06;9.80;99.90
51841;DHT22;37888;53.246;6.658;2023-06-04T01:26:54;9.90;99.90
51841;DHT22;37888;53.246;6.658;2023-06-04T01:29:29;9.90;99.90
51841;DHT22;37888;53.246;6.658;2023-06-04T01:31:56;9.90;99.90
51841;DHT22;37888;53.246;6.658;2023-06-04T01:34:45;9.90;99.90
51841;DHT22;37888;53.246;6.658;2023-06-04T01:37:17;9.90;99.90
51841;DHT22;37888;53.246;6.658;2023-06-04T01:39:48;9.90;99.90
51841;DHT22;37888;53.246;6.658;2023-06-04T01:42:14;9.90;99.90
51841;DHT22;37888;53.246;6.658;2023-06-04T01:44:40;9.90;99.90
51841;DHT22;37888;53.246;6.658;2023-06-04T01:47:05;9.90;99.90
51841;DHT22;37888;53.246;6.658;2023-06-04T01:49:31;9.80;99.90
51841;DHT22;37888;53.246;6.658;2023-06-04T01:51:57;9.90;99.90
51841;DHT22;37888;53.246;6.658;2023-06-04T01:54:22;9.80;99.90
51841;DHT22;37888;53.246;6.658;2023-06-04T01:56:48;9.80;99.90
51841;DHT22;37888;53.246;6.658;2023-06-04T01:59:14;9.80;99.90
51841;DHT22;37888;53.246;6.658;2023-06-04T02:01:42;9.80;99.90
51841;DHT22;37888;53.246;6.658;2023-06-04T02:04:07;9.80;99.90
51841;DHT22;37888;53.246;6.658;2023-06-04T02:06:36;9.80;99.90
51841;DHT22;37888;53.246;6.658;2023-06-04T02:09:02;9.80;99.90
51841;DHT22;37888;53.246;6.658;2023-06-04T02:11:29;9.70;99.90
51841;DHT22;37888;53.246;6.658;2023-06-04T02:13:54;9.70;99.90
51841;DHT22;37888;53.246;6.658;2023-06-04T02:16:20;9.70;99.90
51841;DHT22;37888;53.246;6.658;2023-06-04T02:18:46;9.60;99.90
51841;DHT22;37888;53.246;6.658;2023-06-04T02:21:12;9.60;99.90
51841;DHT22;37888;53.246;6.658;2023-06-04T02:23:37;9.60;99.90
51841;DHT22;37888;53.246;6.658;2023-06-04T02:26:03;9.50;99.90
51841;DHT22;37888;53.246;6.658;2023-06-04T02:28:29;9.40;99.90
51841;DHT22;37888;53.246;6.658;2023-06-04T02:30:54;9.30;99.90
51841;DHT22;37888;53.246;6.658;2023-06-04T02:33:20;9.20;99.90
51841;DHT22;37888;53.246;6.658;2023-06-04T02:35:46;9.00;99.90
51841;DHT22;37888;53.246;6.658;2023-06-04T02:38:12;8.90;99.90
51841;DHT22;37888;53.246;6.658;2023-06-04T02:40:38;8.90;99.90
51841;DHT22;37888;53.246;6.658;2023-06-04T02:43:04;8.80;99.90
51841;DHT22;37888;53.246;6.658;2023-06-04T02:45:30;8.60;99.90
51841;DHT22;37888;53.246;6.658;2023-06-04T02:47:57;8.50;99.90
51841;DHT22;37888;53.246;6.658;2023-06-04T02:50:23;8.40;99.90
51841;DHT22;37888;53.246;6.658;2023-06-04T02:52:48;8.30;99.90
51841;DHT22;37888;53.246;6.658;2023-06-04T02:55:24;8.30;99.90
51841;DHT22;37888;53.246;6.658;2023-06-04T02:58:17;8.20;99.90
51841;DHT22;37888;53.246;6.658;2023-06-04T03:01:18;8.20;99.90
51841;DHT22;37888;53.246;6.658;2023-06-04T03:03:47;8.10;99.90
51841;DHT22;37888;53.246;6.658;2023-06-04T03:06:32;8.10;99.90
51841;DHT22;37888;53.246;6.658;2023-06-04T03:08:59;8.10;99.90
51841;DHT22;37888;53.246;6.658;2023-06-04T03:11:34;8.20;99.90
51841;DHT22;37888;53.246;6.658;2023-06-04T03:22:43;8.20;99.90
51841;DHT22;37888;53.246;6.658;2023-06-04T03:25:52;8.10;99.90
51841;DHT22;37888;53.246;6.658;2023-06-04T03:28:47;8.30;99.90
51841;DHT22;37888;53.246;6.658;2023-06-04T03:35:04;8.90;99.90
51841;DHT22;37888;53.246;6.658;2023-06-04T03:37:59;8.30;99.90
51841;DHT22;37888;53.246;6.658;2023-06-04T03:40:39;8.30;99.90
51841;DHT22;37888;53.246;6.658;2023-06-04T03:43:23;8.40;99.90
51841;DHT22;37888;53.246;6.658;2023-06-04T03:46:25;8.30;99.90
51841;DHT22;37888;53.246;6.658;2023-06-04T03:49:04;8.40;99.90
51841;DHT22;37888;53.246;6.658;2023-06-04T03:55:23;8.30;99.90
51841;DHT22;37888;53.246;6.658;2023-06-04T03:57:49;8.30;99.90
51841;DHT22;37888;53.246;6.658;2023-06-04T04:00:18;8.20;99.90
51841;DHT22;37888;53.246;6.658;2023-06-04T04:03:00;8.20;99.90
51841;DHT22;37888;53.246;6.658;2023-06-04T04:05:52;8.30;99.90
51841;DHT22;37888;53.246;6.658;2023-06-04T04:08:18;8.30;99.90
51841;DHT22;37888;53.246;6.658;2023-06-04T04:10:59;8.20;99.90
51841;DHT22;37888;53.246;6.658;2023-06-04T04:13:57;8.20;99.90
51841;DHT22;37888;53.246;6.658;2023-06-04T04:16:25;8.20;99.90
51841;DHT22;37888;53.246;6.658;2023-06-04T04:19:29;7.80;99.90
51841;DHT22;37888;53.246;6.658;2023-06-04T04:22:06;7.60;99.90
51841;DHT22;37888;53.246;6.658;2023-06-04T04:24:48;8.30;99.90
51841;DHT22;37888;53.246;6.658;2023-06-04T04:27:14;8.30;99.90
51841;DHT22;37888;53.246;6.658;2023-06-04T04:33:00;8.90;99.90
51841;DHT22;37888;53.246;6.658;2023-06-04T04:35:54;8.80;99.90
51841;DHT22;37888;53.246;6.658;2023-06-04T04:38:29;8.60;99.90
51841;DHT22;37888;53.246;6.658;2023-06-04T04:41:06;8.70;99.90
51841;DHT22;37888;53.246;6.658;2023-06-04T04:43:41;8.80;99.90
51841;DHT22;37888;53.246;6.658;2023-06-04T04:46:48;8.90;99.90
51841;DHT22;37888;53.246;6.658;2023-06-04T04:49:44;9.20;99.90
51841;DHT22;37888;53.246;6.658;2023-06-04T04:52:11;9.10;99.90
51841;DHT22;37888;53.246;6.658;2023-06-04T04:58:20;9.20;99.90
51841;DHT22;37888;53.246;6.658;2023-06-04T05:00:55;9.50;99.90
51841;DHT22;37888;53.246;6.658;2023-06-04T05:04:00;9.40;99.90
51841;DHT22;37888;53.246;6.658;2023-06-04T05:09:56;9.60;99.90
51841;DHT22;37888;53.246;6.658;2023-06-04T05:12:59;9.50;99.90
51841;DHT22;37888;53.246;6.658;2023-06-04T05:15:55;9.80;99.90
51841;DHT22;37888;53.246;6.658;2023-06-04T05:19:50;9.50;99.90
51841;DHT22;37888;53.246;6.658;2023-06-04T05:22:56;10.20;99.90
51841;DHT22;37888;53.246;6.658;2023-06-04T05:25:43;10.20;99.90
51841;DHT22;37888;53.246;6.658;2023-06-04T05:28:29;10.50;99.90
51841;DHT22;37888;53.246;6.658;2023-06-04T05:31:11;10.70;99.90
51841;DHT22;37888;53.246;6.658;2023-06-04T05:34:18;10.80;99.90
51841;DHT22;37888;53.246;6.658;2023-06-04T05:36:50;10.70;99.90
51841;DHT22;37888;53.246;6.658;2023-06-04T05:43:31;11.30;99.90
51841;DHT22;37888;53.246;6.658;2023-06-04T05:46:19;11.30;99.90
51841;DHT22;37888;53.246;6.658;2023-06-04T05:49:01;11.80;99.90
51841;DHT22;37888;53.246;6.658;2023-06-04T05:52:02;12.80;99.90
51841;DHT22;37888;53.246;6.658;2023-06-04T05:54:44;13.90;99.90
51841;DHT22;37888;53.246;6.658;2023-06-04T05:57:55;15.10;99.90
51841;DHT22;37888;53.246;6.658;2023-06-04T06:00:30;16.50;99.90
51841;DHT22;37888;53.246;6.658;2023-06-04T06:03:13;17.20;99.90
51841;DHT22;37888;53.246;6.658;2023-06-04T06:09:10;17.80;99.90
51841;DHT22;37888;53.246;6.658;2023-06-04T06:11:50;17.80;99.90
51841;DHT22;37888;53.246;6.658;2023-06-04T06:14:21;17.70;99.90
51841;DHT22;37888;53.246;6.658;2023-06-04T06:17:12;17.90;99.90
51841;DHT22;37888;53.246;6.658;2023-06-04T06:19:47;18.50;99.90
51841;DHT22;37888;53.246;6.658;2023-06-04T06:32:38;16.80;99.90
51841;DHT22;37888;53.246;6.658;2023-06-04T06:35:04;16.40;99.90
51841;DHT22;37888;53.246;6.658;2023-06-04T06:37:31;16.30;99.90
51841;DHT22;37888;53.246;6.658;2023-06-04T06:39:56;16.20;99.90
51841;DHT22;37888;53.246;6.658;2023-06-04T06:42:25;16.10;99.90
51841;DHT22;37888;53.246;6.658;2023-06-04T06:44:51;16.00;99.90
51841;DHT22;37888;53.246;6.658;2023-06-04T06:48:01;16.10;99.90
51841;DHT22;37888;53.246;6.658;2023-06-04T06:50:35;15.90;99.90
51841;DHT22;37888;53.246;6.658;2023-06-04T07:09:59;21.00;99.90
51841;DHT22;37888;53.246;6.658;2023-06-04T07:15:22;22.20;99.90
51841;DHT22;37888;53.246;6.658;2023-06-04T07:21:48;23.40;87.90
51841;DHT22;37888;53.246;6.658;2023-06-04T07:24:14;23.20;99.60
51841;DHT22;37888;53.246;6.658;2023-06-04T07:26:45;23.20;94.60
51841;DHT22;37888;53.246;6.658;2023-06-04T07:29:25;23.40;88.30
51841;DHT22;37888;53.246;6.658;2023-06-04T07:32:12;23.60;76.60
51841;DHT22;37888;53.246;6.658;2023-06-04T07:35:14;23.80;81.30
51841;DHT22;37888;53.246;6.658;2023-06-04T07:37:46;24.20;73.40
51841;DHT22;37888;53.246;6.658;2023-06-04T07:40:14;24.10;77.00
51841;DHT22;37888;53.246;6.658;2023-06-04T07:42:44;24.30;75.30
51841;DHT22;37888;53.246;6.658;2023-06-04T07:45:21;24.60;73.80
51841;DHT22;37888;53.246;6.658;2023-06-04T07:47:46;24.40;71.90
51841;DHT22;37888;53.246;6.658;2023-06-04T07:50:15;24.50;72.60
51841;DHT22;37888;53.246;6.658;2023-06-04T07:52:41;24.40;71.60
51841;DHT22;37888;53.246;6.658;2023-06-04T07:55:10;24.40;69.60
51841;DHT22;37888;53.246;6.658;2023-06-04T07:57:38;24.30;69.90
51841;DHT22;37888;53.246;6.658;2023-06-04T08:00:05;24.40;69.80
51841;DHT22;37888;53.246;6.658;2023-06-04T08:02:31;24.60;69.10
51841;DHT22;37888;53.246;6.658;2023-06-04T08:04:57;24.20;67.00
51841;DHT22;37888;53.246;6.658;2023-06-04T08:07:23;23.90;71.00
51841;DHT22;37888;53.246;6.658;2023-06-04T08:09:48;23.30;71.10
51841;DHT22;37888;53.246;6.658;2023-06-04T08:12:16;22.80;72.60
51841;DHT22;37888;53.246;6.658;2023-06-04T08:14:41;22.40;72.20
51841;DHT22;37888;53.246;6.658;2023-06-04T08:17:07;22.00;72.10
51841;DHT22;37888;53.246;6.658;2023-06-04T08:19:33;21.90;72.90
51841;DHT22;37888;53.246;6.658;2023-06-04T08:22:02;21.60;72.80
51841;DHT22;37888;53.246;6.658;2023-06-04T08:24:27;21.40;73.30
51841;DHT22;37888;53.246;6.658;2023-06-04T08:26:53;21.70;74.00
51841;DHT22;37888;53.246;6.658;2023-06-04T08:29:19;22.10;73.10
51841;DHT22;37888;53.246;6.658;2023-06-04T08:31:45;22.20;72.60
51841;DHT22;37888;53.246;6.658;2023-06-04T08:34:10;22.10;72.60
51841;DHT22;37888;53.246;6.658;2023-06-04T08:36:36;21.90;72.90
51841;DHT22;37888;53.246;6.658;2023-06-04T08:39:02;21.90;73.40
51841;DHT22;37888;53.246;6.658;2023-06-04T08:41:30;21.90;73.60
51841;DHT22;37888;53.246;6.658;2023-06-04T08:43:58;22.00;73.50
51841;DHT22;37888;53.246;6.658;2023-06-04T08:46:27;21.90;73.20
51841;DHT22;37888;53.246;6.658;2023-06-04T08:48:56;21.90;73.50
51841;DHT22;37888;53.246;6.658;2023-06-04T08:51:25;22.00;73.80
51841;DHT22;37888;53.246;6.658;2023-06-04T08:53:51;22.20;73.30
51841;DHT22;37888;53.246;6.658;2023-06-04T08:56:20;22.50;72.40
51841;DHT22;37888;53.246;6.658;2023-06-04T08:58:47;22.90;71.10
51841;DHT22;37888;53.246;6.658;2023-06-04T09:01:14;23.20;70.70
51841;DHT22;37888;53.246;6.658;2023-06-04T09:03:41;23.20;70.10
51841;DHT22;37888;53.246;6.658;2023-06-04T09:06:07;22.80;69.90
51841;DHT22;37888;53.246;6.658;2023-06-04T09:08:36;22.60;70.40
51841;DHT22;37888;53.246;6.658;2023-06-04T09:11:08;22.50;70.40
51841;DHT22;37888;53.246;6.658;2023-06-04T09:13:36;22.70;70.50
51841;DHT22;37888;53.246;6.658;2023-06-04T09:16:03;22.60;70.60
51841;DHT22;37888;53.246;6.658;2023-06-04T09:18:29;22.50;71.50
51841;DHT22;37888;53.246;6.658;2023-06-04T09:21:06;22.40;72.30
51841;DHT22;37888;53.246;6.658;2023-06-04T09:23:45;22.20;72.10
51841;DHT22;37888;53.246;6.658;2023-06-04T09:26:11;22.00;73.70
51841;DHT22;37888;53.246;6.658;2023-06-04T09:28:43;21.80;75.00
51841;DHT22;37888;53.246;6.658;2023-06-04T09:31:19;21.60;74.60
51841;DHT22;37888;53.246;6.658;2023-06-04T09:33:50;21.60;75.20
51841;DHT22;37888;53.246;6.658;2023-06-04T09:36:19;21.50;74.90
51841;DHT22;37888;53.246;6.658;2023-06-04T09:38:45;21.30;75.00
51841;DHT22;37888;53.246;6.658;2023-06-04T09:41:17;21.10;74.20
51841;DHT22;37888;53.246;6.658;2023-06-04T09:43:47;20.80;74.70
51841;DHT22;37888;53.246;6.658;2023-06-04T09:46:22;20.80;75.50
51841;DHT22;37888;53.246;6.658;2023-06-04T09:48:48;20.70;75.80
51841;DHT22;37888;53.246;6.658;2023-06-04T09:51:15;20.80;76.70
51841;DHT22;37888;53.246;6.658;2023-06-04T09:53:41;20.90;75.20
51841;DHT22;37888;53.246;6.658;2023-06-04T09:56:07;21.10;74.90
51841;DHT22;37888;53.246;6.658;2023-06-04T09:58:34;21.20;74.90
51841;DHT22;37888;53.246;6.658;2023-06-04T10:01:03;21.30;75.00
51841;DHT22;37888;53.246;6.658;2023-06-04T10:03:36;21.40;73.90
51841;DHT22;37888;53.246;6.658;2023-06-04T10:06:04;21.50;73.00
51841;DHT22;37888;53.246;6.658;2023-06-04T10:08:31;21.40;73.60
51841;DHT22;37888;53.246;6.658;2023-06-04T10:10:59;21.40;73.40
51841;DHT22;37888;53.246;6.658;2023-06-04T10:13:30;21.50;73.70
51841;DHT22;37888;53.246;6.658;2023-06-04T10:15:57;21.60;73.90
51841;DHT22;37888;53.246;6.658;2023-06-04T10:18:24;21.60;73.20
51841;DHT22;37888;53.246;6.658;2023-06-04T10:20:52;21.60;72.90
51841;DHT22;37888;53.246;6.658;2023-06-04T10:23:18;21.60;73.70
51841;DHT22;37888;53.246;6.658;2023-06-04T10:25:49;21.50;73.30
51841;DHT22;37888;53.246;6.658;2023-06-04T10:28:24;21.40;73.10
51841;DHT22;37888;53.246;6.658;2023-06-04T10:30:50;21.20;73.00
51841;DHT22;37888;53.246;6.658;2023-06-04T10:33:20;21.20;74.10
51841;DHT22;37888;53.246;6.658;2023-06-04T10:35:54;21.10;74.00
51841;DHT22;37888;53.246;6.658;2023-06-04T10:38:20;21.00;74.90
51841;DHT22;37888;53.246;6.658;2023-06-04T10:40:48;20.90;74.70
51841;DHT22;37888;53.246;6.658;2023-06-04T10:43:14;20.70;74.70
51841;DHT22;37888;53.246;6.658;2023-06-04T10:45:44;20.80;75.10
51841;DHT22;37888;53.246;6.658;2023-06-04T10:48:11;20.90;75.00
51841;DHT22;37888;53.246;6.658;2023-06-04T10:50:51;20.90;74.40
51841;DHT22;37888;53.246;6.658;2023-06-04T10:53:18;20.90;74.60
51841;DHT22;37888;53.246;6.658;2023-06-04T10:55:48;20.90;75.30
51841;DHT22;37888;53.246;6.658;2023-06-04T10:58:15;21.10;75.50
51841;DHT22;37888;53.246;6.658;2023-06-04T11:00:43;21.10;74.90
51841;DHT22;37888;53.246;6.658;2023-06-04T11:03:12;21.10;74.90
51841;DHT22;37888;53.246;6.658;2023-06-04T11:05:40;21.10;75.00
51841;DHT22;37888;53.246;6.658;2023-06-04T11:08:06;21.10;75.20
51841;DHT22;37888;53.246;6.658;2023-06-04T11:10:51;20.90;74.70
51841;DHT22;37888;53.246;6.658;2023-06-04T11:13:25;21.00;75.20
51841;DHT22;37888;53.246;6.658;2023-06-04T11:15:51;21.10;74.10
51841;DHT22;37888;53.246;6.658;2023-06-04T11:18:19;21.10;74.20
51841;DHT22;37888;53.246;6.658;2023-06-04T11:20:50;21.20;74.70
51841;DHT22;37888;53.246;6.658;2023-06-04T11:23:16;21.20;74.60
51841;DHT22;37888;53.246;6.658;2023-06-04T11:25:43;21.30;74.90
51841;DHT22;37888;53.246;6.658;2023-06-04T11:28:16;21.40;74.50
51841;DHT22;37888;53.246;6.658;2023-06-04T11:30:43;21.40;74.30
51841;DHT22;37888;53.246;6.658;2023-06-04T11:33:09;21.30;74.00
51841;DHT22;37888;53.246;6.658;2023-06-04T11:35:42;21.10;74.20
51841;DHT22;37888;53.246;6.658;2023-06-04T11:38:09;21.10;74.70
51841;DHT22;37888;53.246;6.658;2023-06-04T11:40:35;21.10;74.50
51841;DHT22;37888;53.246;6.658;2023-06-04T11:43:02;21.10;74.60
51841;DHT22;37888;53.246;6.658;2023-06-04T11:45:28;21.10;74.20
51841;DHT22;37888;53.246;6.658;2023-06-04T11:47:56;21.10;74.10
51841;DHT22;37888;53.246;6.658;2023-06-04T11:50:26;21.00;73.80
51841;DHT22;37888;53.246;6.658;2023-06-04T11:52:53;21.00;74.00
51841;DHT22;37888;53.246;6.658;2023-06-04T11:55:19;20.90;74.10
51841;DHT22;37888;53.246;6.658;2023-06-04T11:57:49;20.90;74.00
51841;DHT22;37888;53.246;6.658;2023-06-04T12:00:15;20.80;73.80
51841;DHT22;37888;53.246;6.658;2023-06-04T12:02:53;20.70;74.00
51841;DHT22;37888;53.246;6.658;2023-06-04T12:05:23;20.70;74.60
51841;DHT22;37888;53.246;6.658;2023-06-04T12:07:50;20.70;75.60
51841;DHT22;37888;53.246;6.658;2023-06-04T12:10:17;20.60;75.50
51841;DHT22;37888;53.246;6.658;2023-06-04T12:13:17;20.30;75.70
51841;DHT22;37888;53.246;6.658;2023-06-04T12:15:42;20.10;77.40
51841;DHT22;37888;53.246;6.658;2023-06-04T12:18:09;20.10;77.60
51841;DHT22;37888;53.246;6.658;2023-06-04T12:20:40;20.00;78.10
51841;DHT22;37888;53.246;6.658;2023-06-04T12:23:20;19.90;79.40
51841;DHT22;37888;53.246;6.658;2023-06-04T12:25:50;19.80;81.20
51841;DHT22;37888;53.246;6.658;2023-06-04T12:28:19;19.70;81.10
51841;DHT22;37888;53.246;6.658;2023-06-04T12:30:45;19.60;82.90
51841;DHT22;37888;53.246;6.658;2023-06-04T12:33:12;19.60;84.50
51841;DHT22;37888;53.246;6.658;2023-06-04T12:35:37;19.50;84.50
51841;DHT22;37888;53.246;6.658;2023-06-04T12:38:04;19.40;86.00
51841;DHT22;37888;53.246;6.658;2023-06-04T12:40:34;19.40;88.40
51841;DHT22;37888;53.246;6.658;2023-06-04T12:43:00;19.30;92.10
51841;DHT22;37888;53.246;6.658;2023-06-04T12:45:26;19.20;96.70
51841;DHT22;37888;53.246;6.658;2023-06-04T12:47:52;19.20;99.60
51841;DHT22;37888;53.246;6.658;2023-06-04T12:50:17;19.20;99.90
51841;DHT22;37888;53.246;6.658;2023-06-04T12:52:43;19.10;99.70
51841;DHT22;37888;53.246;6.658;2023-06-04T12:55:09;19.00;99.90
51841;DHT22;37888;53.246;6.658;2023-06-04T12:57:35;18.90;99.90
51841;DHT22;37888;53.246;6.658;2023-06-04T13:00:01;18.80;99.90
51841;DHT22;37888;53.246;6.658;2023-06-04T13:02:26;18.80;99.90
51841;DHT22;37888;53.246;6.658;2023-06-04T13:04:52;18.70;99.90
51841;DHT22;37888;53.246;6.658;2023-06-04T13:07:20;18.60;99.90
51841;DHT22;37888;53.246;6.658;2023-06-04T13:09:45;18.60;99.90
51841;DHT22;37888;53.246;6.658;2023-06-04T13:12:11;18.50;99.90
51841;DHT22;37888;53.246;6.658;2023-06-04T13:14:37;18.50;99.90
51841;DHT22;37888;53.246;6.658;2023-06-04T13:17:02;18.50;99.90
51841;DHT22;37888;53.246;6.658;2023-06-04T13:19:31;18.50;99.90
51841;DHT22;37888;53.246;6.658;2023-06-04T13:21:57;18.50;99.90
51841;DHT22;37888;53.246;6.658;2023-06-04T13:24:23;18.30;99.90
51841;DHT22;37888;53.246;6.658;2023-06-04T13:26:49;18.20;99.90
51841;DHT22;37888;53.246;6.658;2023-06-04T13:29:15;18.20;99.90
51841;DHT22;37888;53.246;6.658;2023-06-04T13:31:42;18.10;99.90
51841;DHT22;37888;53.246;6.658;2023-06-04T13:34:08;18.10;99.90
51841;DHT22;37888;53.246;6.658;2023-06-04T13:36:33;18.00;99.90
51841;DHT22;37888;53.246;6.658;2023-06-04T13:38:59;18.00;99.90
51841;DHT22;37888;53.246;6.658;2023-06-04T13:41:25;18.00;99.90
51841;DHT22;37888;53.246;6.658;2023-06-04T13:43:51;18.00;99.90
51841;DHT22;37888;53.246;6.658;2023-06-04T13:46:17;18.00;99.90
51841;DHT22;37888;53.246;6.658;2023-06-04T13:48:43;18.00;99.90
51841;DHT22;37888;53.246;6.658;2023-06-04T13:51:09;18.00;99.90
51841;DHT22;37888;53.246;6.658;2023-06-04T13:53:35;18.10;99.90
51841;DHT22;37888;53.246;6.658;2023-06-04T13:56:00;18.10;99.90
51841;DHT22;37888;53.246;6.658;2023-06-04T13:58:26;18.00;99.90
51841;DHT22;37888;53.246;6.658;2023-06-04T14:00:52;17.90;99.90
51841;DHT22;37888;53.246;6.658;2023-06-04T14:03:18;17.80;99.90
51841;DHT22;37888;53.246;6.658;2023-06-04T14:05:44;17.70;99.90
51841;DHT22;37888;53.246;6.658;2023-06-04T14:08:10;17.50;99.90
51841;DHT22;37888;53.246;6.658;2023-06-04T14:10:37;17.50;99.90
51841;DHT22;37888;53.246;6.658;2023-06-04T14:13:07;17.50;99.90
51841;DHT22;37888;53.246;6.658;2023-06-04T14:15:33;17.50;99.90
51841;DHT22;37888;53.246;6.658;2023-06-04T14:17:58;17.50;99.90
51841;DHT22;37888;53.246;6.658;2023-06-04T14:20:24;17.50;99.90
51841;DHT22;37888;53.246;6.658;2023-06-04T14:22:50;17.40;99.90
51841;DHT22;37888;53.246;6.658;2023-06-04T14:25:15;17.40;99.90
51841;DHT22;37888;53.246;6.658;2023-06-04T14:27:41;17.30;99.90
51841;DHT22;37888;53.246;6.658;2023-06-04T14:30:07;17.30;99.90
51841;DHT22;37888;53.246;6.658;2023-06-04T14:32:33;17.30;99.90
51841;DHT22;37888;53.246;6.658;2023-06-04T14:34:59;17.20;99.90
51841;DHT22;37888;53.246;6.658;2023-06-04T14:37:25;17.20;99.90
51841;DHT22;37888;53.246;6.658;2023-06-04T14:39:51;17.20;99.90
51841;DHT22;37888;53.246;6.658;2023-06-04T14:42:17;17.20;99.90
51841;DHT22;37888;53.246;6.658;2023-06-04T14:44:42;17.20;99.90
51841;DHT22;37888;53.246;6.658;2023-06-04T14:47:08;17.10;99.90
51841;DHT22;37888;53.246;6.658;2023-06-04T14:52:00;17.00;99.90
51841;DHT22;37888;53.246;6.658;2023-06-04T14:54:26;17.00;99.90
51841;DHT22;37888;53.246;6.658;2023-06-04T14:56:52;17.00;99.90
51841;DHT22;37888;53.246;6.658;2023-06-04T14:59:17;17.00;99.90
51841;DHT22;37888;53.246;6.658;2023-06-04T15:01:43;16.90;99.90
51841;DHT22;37888;53.246;6.658;2023-06-04T15:04:09;16.90;99.90
51841;DHT22;37888;53.246;6.658;2023-06-04T15:06:35;16.90;99.90
51841;DHT22;37888;53.246;6.658;2023-06-04T15:09:01;16.90;99.90
51841;DHT22;37888;53.246;6.658;2023-06-04T15:11:27;16.90;99.90
51841;DHT22;37888;53.246;6.658;2023-06-04T15:13:53;16.90;99.90
51841;DHT22;37888;53.246;6.658;2023-06-04T15:16:19;16.90;99.90
51841;DHT22;37888;53.246;6.658;2023-06-04T15:18:45;16.90;99.90
51841;DHT22;37888;53.246;6.658;2023-06-04T15:21:11;16.90;99.90
51841;DHT22;37888;53.246;6.658;2023-06-04T15:23:37;16.80;99.90
51841;DHT22;37888;53.246;6.658;2023-06-04T15:26:02;16.80;99.90
51841;DHT22;37888;53.246;6.658;2023-06-04T15:28:28;16.80;99.90
51841;DHT22;37888;53.246;6.658;2023-06-04T15:30:54;16.70;99.90
51841;DHT22;37888;53.246;6.658;2023-06-04T15:33:20;16.70;99.90
51841;DHT22;37888;53.246;6.658;2023-06-04T15:35:45;16.70;99.90
51841;DHT22;37888;53.246;6.658;2023-06-04T15:38:11;16.60;99.90
51841;DHT22;37888;53.246;6.658;2023-06-04T15:40:37;16.60;99.90
51841;DHT22;37888;53.246;6.658;2023-06-04T15:43:03;16.60;99.90
51841;DHT22;37888;53.246;6.658;2023-06-04T15:45:31;16.60;99.90
51841;DHT22;37888;53.246;6.658;2023-06-04T15:47:57;16.60;99.90
51841;DHT22;37888;53.246;6.658;2023-06-04T15:50:22;16.60;99.90
51841;DHT22;37888;53.246;6.658;2023-06-04T15:52:48;16.50;99.90
51841;DHT22;37888;53.246;6.658;2023-06-04T15:55:14;16.50;99.90
51841;DHT22;37888;53.246;6.658;2023-06-04T15:57:41;16.50;99.90
51841;DHT22;37888;53.246;6.658;2023-06-04T16:00:08;16.50;99.90
51841;DHT22;37888;53.246;6.658;2023-06-04T16:02:34;16.50;99.90
51841;DHT22;37888;53.246;6.658;2023-06-04T16:05:00;16.50;99.90
51841;DHT22;37888;53.246;6.658;2023-06-04T16:07:26;16.50;99.90
51841;DHT22;37888;53.246;6.658;2023-06-04T16:09:52;16.50;99.90
51841;DHT22;37888;53.246;6.658;2023-06-04T16:12:17;16.50;99.90
51841;DHT22;37888;53.246;6.658;2023-06-04T16:14:43;16.40;99.90
51841;DHT22;37888;53.246;6.658;2023-06-04T16:17:09;16.40;99.90
51841;DHT22;37888;53.246;6.658;2023-06-04T16:19:35;16.40;99.90
51841;DHT22;37888;53.246;6.658;2023-06-04T16:22:00;16.40;99.90
51841;DHT22;37888;53.246;6.658;2023-06-04T16:24:26;16.40;99.90
51841;DHT22;37888;53.246;6.658;2023-06-04T16:26:52;16.30;99.90
51841;DHT22;37888;53.246;6.658;2023-06-04T16:29:17;16.30;99.90
51841;DHT22;37888;53.246;6.658;2023-06-04T16:31:43;16.30;99.90
51841;DHT22;37888;53.246;6.658;2023-06-04T16:34:09;16.30;99.90
51841;DHT22;37888;53.246;6.658;2023-06-04T16:36:38;16.30;99.90
51841;DHT22;37888;53.246;6.658;2023-06-04T16:39:04;16.20;99.90
51841;DHT22;37888;53.246;6.658;2023-06-04T16:41:30;16.20;99.90
51841;DHT22;37888;53.246;6.658;2023-06-04T16:43:56;16.20;99.90
51841;DHT22;37888;53.246;6.658;2023-06-04T16:46:23;16.20;99.90
51841;DHT22;37888;53.246;6.658;2023-06-04T16:48:49;16.20;99.90
51841;DHT22;37888;53.246;6.658;2023-06-04T16:51:15;16.20;99.90
51841;DHT22;37888;53.246;6.658;2023-06-04T16:53:41;16.10;99.90
51841;DHT22;37888;53.246;6.658;2023-06-04T16:56:07;16.00;99.90
51841;DHT22;37888;53.246;6.658;2023-06-04T16:58:34;16.00;99.90
51841;DHT22;37888;53.246;6.658;2023-06-04T17:01:16;15.90;99.90
51841;DHT22;37888;53.246;6.658;2023-06-04T17:03:43;15.90;99.90
51841;DHT22;37888;53.246;6.658;2023-06-04T17:06:24;15.80;99.90
51841;DHT22;37888;53.246;6.658;2023-06-04T17:08:52;15.80;99.90
51841;DHT22;37888;53.246;6.658;2023-06-04T17:11:18;15.80;99.90
51841;DHT22;37888;53.246;6.658;2023-06-04T17:13:44;15.70;99.90
51841;DHT22;37888;53.246;6.658;2023-06-04T17:16:12;15.70;99.90
51841;DHT22;37888;53.246;6.658;2023-06-04T17:18:38;15.60;99.90